Time;durP1;ratioP1;P1;durP2;ratioP2;P2;SDS_P1;SDS_P2;PMS_P1;PMS_P2;Temp;Humidity;BMP_temperature;BMP_pressure;BME280_temperature;BME280_humidity;BME280_pressure;Samples;Min_cycle;Max_cycle;Signal;HPM_P1;HPM_P2
2023/04/07 00:02:36;;;;;;;;;;;;;;;;;;5054063;28;20308;-79
2023/04/07 00:05:39;;;;;;;;;;;;;;;;;;5054039;28;19919;-80
2023/04/07 00:08:42;;;;;;;;;;;;;;;;;;5048164;28;19919;-80
2023/04/07 00:11:47;;;;;;;;;;;;;;;;;;5053861;28;20020;-80
2023/04/07 00:14:50;;;;;;;;;;;;;;;;;;5041822;28;20292;-80
2023/04/07 00:17:53;;;;;;;;;;;;;;;;;;5037908;28;19920;-80
2023/04/07 00:20:55;;;;;;;;;;;;;;;;;;5054014;28;19935;-80
2023/04/07 00:23:58;;;;;;;;;;;;;;;;;;5053600;28;19982;-80
2023/04/07 00:27:01;;;;;;;;;;;;;;;;;;5053615;28;19974;-80
2023/04/07 00:30:04;;;;;;;;;;;;;;;;;;5052722;28;19920;-80
2023/04/07 00:33:07;;;;;;;;;;;;;;;;;;5053555;28;19924;-80
2023/04/07 00:36:10;;;;;;;;;;;;;;;;;;5053479;28;20054;-80
2023/04/07 00:39:14;;;;;;;;;;;;;;;;;;5053414;28;19923;-80
2023/04/07 00:42:17;;;;;;;;;;;;;;;;;;5064000;28;19957;-79
2023/04/07 00:45:20;;;;;;;;;;;;;;;;;;5053549;28;19967;-80
2023/04/07 00:48:23;;;;;;;;;;;;;;;;;;5041272;28;20043;-80
2023/04/07 00:51:26;;;;;;;;;;;;;;;;;;5053185;28;19970;-80
2023/04/07 00:54:30;;;;;;;;;;;;;;;;;;5053147;28;20012;-80
2023/04/07 00:57:33;;;;;;;;;;;;;;;;;;5030305;28;19929;-80
2023/04/07 01:00:37;;;;;;;;;;;;;;;;;;5009896;28;19976;-80
2023/04/07 01:03:41;;;;;;;;;;;;;;;;;;5043631;28;19941;-80
2023/04/07 01:06:44;;;;;;;;;;;;;;;;;;5033098;28;19920;-80
2023/04/07 01:09:47;;;;;;;;;;;;;;;;;;5020824;28;19963;-79
2023/04/07 01:12:50;;;;;;;;;;;;;;;;;;5021144;28;19926;-79
2023/04/07 01:15:55;;;;;;;;;;;;;;;;;;5032910;28;19924;-79
2023/04/07 01:19:00;;;;;;;;;;;;;;;;;;5043550;28;20024;-80
2023/04/07 01:22:04;;;;;;;;;;;;;;;;;;5033286;28;19958;-80
2023/04/07 01:25:10;;;;;;;;;;;;;;;;;;5043466;28;20392;-80
2023/04/07 01:28:14;;;;;;;;;;;;;;;;;;5033370;28;19923;-79
2023/04/07 01:31:17;;;;;;;;;;;;;;;;;;5032757;28;20444;-80
2023/04/07 01:34:20;;;;;;;;;;;;;;;;;;5020896;28;19920;-80
2023/04/07 01:37:23;;;;;;;;;;;;;;;;;;5032610;28;20339;-79
2023/04/07 01:40:26;;;;;;;;;;;;;;;;;;5033880;28;20019;-79
2023/04/07 01:43:29;;;;;;;;;;;;;;;;;;5036742;28;20296;-79
2023/04/07 01:46:31;;;;;;;;;;;;;;;;;;5036566;28;19920;-79
2023/04/07 01:49:35;;;;;;;;;;;;;;;;;;5024255;28;19952;-79
2023/04/07 01:52:38;;;;;;;;;;;;;;;;;;5036503;28;19983;-79
2023/04/07 01:55:41;;;;;;;;;;;;;;;;;;5036319;28;19987;-80
2023/04/07 01:58:45;;;;;;;;;;;;;;;;;;5067016;28;19974;-80
2023/04/07 02:01:51;;;;;;;;;;;;;;;;;;5043728;28;20055;-80
2023/04/07 02:04:55;;;;;;;;;;;;;;;;;;5043849;28;19924;-80
2023/04/07 02:07:58;;;;;;;;;;;;;;;;;;5044195;28;19919;-79
2023/04/07 02:11:02;;;;;;;;;;;;;;;;;;5043732;28;19978;-79
2023/04/07 02:14:08;;;;;;;;;;;;;;;;;;5066790;28;19935;-80
2023/04/07 02:17:23;;;;;;;;;;;;;;;;;;5066775;28;19919;-80
2023/04/07 02:20:26;;;;;;;;;;;;;;;;;;5043599;28;19919;-80
2023/04/07 02:23:29;;;;;;;;;;;;;;;;;;5043696;28;20284;-80
2023/04/07 02:26:33;;;;;;;;;;;;;;;;;;5066897;28;19924;-80
2023/04/07 02:29:36;;;;;;;;;;;;;;;;;;5055812;28;19978;-79
2023/04/07 02:32:39;;;;;;;;;;;;;;;;;;5055698;28;19924;-79
2023/04/07 02:35:42;;;;;;;;;;;;;;;;;;5055651;28;19959;-80
2023/04/07 02:38:45;;;;;;;;;;;;;;;;;;5055590;28;19967;-79
2023/04/07 02:41:47;;;;;;;;;;;;;;;;;;5055907;28;19923;-80
2023/04/07 02:44:50;;;;;;;;;;;;;;;;;;5043067;28;19920;-80
2023/04/07 02:47:53;;;;;;;;;;;;;;;;;;5055384;28;19920;-80
2023/04/07 02:50:56;;;;;;;;;;;;;;;;;;5055226;28;20331;-79
2023/04/07 02:53:59;;;;;;;;;;;;;;;;;;5055238;28;20010;-79
2023/04/07 02:57:02;;;;;;;;;;;;;;;;;;5055365;28;20010;-80
2023/04/07 03:00:05;;;;;;;;;;;;;;;;;;5055124;28;19920;-79
2023/04/07 03:03:24;;;;;;;;;;;;;;;;;;5042772;28;20043;-79
2023/04/07 03:06:50;;;;;;;;;;;;;;;;;;5054847;28;19919;-80
2023/04/07 03:09:53;;;;;;;;;;;;;;;;;;5055390;28;19920;-79
2023/04/07 03:12:56;;;;;;;;;;;;;;;;;;5042516;28;20280;-80
2023/04/07 03:15:59;;;;;;;;;;;;;;;;;;5065590;28;20009;-80
2023/04/07 03:19:07;;;;;;;;;;;;;;;;;;5042765;28;19959;-79
2023/04/07 03:22:13;;;;;;;;;;;;;;;;;;5042407;28;19924;-79
2023/04/07 03:25:23;;;;;;;;;;;;;;;;;;5054995;28;20391;-79
2023/04/07 03:28:27;;;;;;;;;;;;;;;;;;5042238;28;19974;-79
2023/04/07 03:31:30;;;;;;;;;;;;;;;;;;5042174;28;19924;-79
2023/04/07 03:34:33;;;;;;;;;;;;;;;;;;5065268;28;19966;-80
2023/04/07 03:37:36;;;;;;;;;;;;;;;;;;5042277;28;19966;-80
2023/04/07 03:40:40;;;;;;;;;;;;;;;;;;5042365;28;19919;-80
2023/04/07 03:43:43;;;;;;;;;;;;;;;;;;5042118;28;19919;-79
2023/04/07 03:46:49;;;;;;;;;;;;;;;;;;5041876;28;19920;-80
2023/04/07 03:49:52;;;;;;;;;;;;;;;;;;5041814;28;20055;-79
2023/04/07 03:52:56;;;;;;;;;;;;;;;;;;5042084;28;19924;-79
2023/04/07 03:56:05;;;;;;;;;;;;;;;;;;5064954;28;20368;-79
2023/04/07 03:59:23;;;;;;;;;;;;;;;;;;5041711;28;19946;-80
2023/04/07 04:02:34;;;;;;;;;;;;;;;;;;5041721;28;19920;-80
2023/04/07 04:05:39;;;;;;;;;;;;;;;;;;5041610;28;19923;-80
2023/04/07 04:08:42;;;;;;;;;;;;;;;;;;5041554;28;19966;-79
2023/04/07 04:11:46;;;;;;;;;;;;;;;;;;5064363;28;20012;-79
2023/04/07 04:14:51;;;;;;;;;;;;;;;;;;5041293;28;20280;-79
2023/04/07 04:17:54;;;;;;;;;;;;;;;;;;5064429;28;19966;-80
2023/04/07 04:20:57;;;;;;;;;;;;;;;;;;5041371;28;19974;-79
2023/04/07 04:24:00;;;;;;;;;;;;;;;;;;5041315;28;20383;-80
2023/04/07 04:27:04;;;;;;;;;;;;;;;;;;5041166;28;20003;-79
2023/04/07 04:30:08;;;;;;;;;;;;;;;;;;5041124;28;19966;-80
2023/04/07 04:33:27;;;;;;;;;;;;;;;;;;5041383;28;19923;-79
2023/04/07 04:36:32;;;;;;;;;;;;;;;;;;5064077;28;19966;-79
2023/04/07 04:39:40;;;;;;;;;;;;;;;;;;5053397;28;19920;-79
2023/04/07 04:42:44;;;;;;;;;;;;;;;;;;5041086;28;19919;-79
2023/04/07 04:45:49;;;;;;;;;;;;;;;;;;5041044;28;19970;-79
2023/04/07 04:48:53;;;;;;;;;;;;;;;;;;5041283;28;19974;-79
2023/04/07 04:51:58;;;;;;;;;;;;;;;;;;5040986;28;20531;-79
2023/04/07 04:55:01;;;;;;;;;;;;;;;;;;5040904;28;20007;-80
2023/04/07 04:58:04;;;;;;;;;;;;;;;;;;5055263;28;20007;-79
2023/04/07 05:01:19;;;;;;;;;;;;;;;;;;5060745;28;20288;-79
2023/04/07 05:04:34;;;;;;;;;;;;;;;;;;5060680;28;19962;-79
2023/04/07 05:08:03;;;;;;;;;;;;;;;;;;5073298;28;20281;-79
2023/04/07 05:11:10;;;;;;;;;;;;;;;;;;5060728;28;20014;-79
2023/04/07 05:14:14;;;;;;;;;;;;;;;;;;5060852;28;19927;-79
2023/04/07 05:17:22;;;;;;;;;;;;;;;;;;5066288;28;19935;-80
2023/04/07 05:20:25;;;;;;;;;;;;;;;;;;5064396;28;20129;-79
2023/04/07 05:23:28;;;;;;;;;;;;;;;;;;5077523;28;19918;-79
2023/04/07 05:26:32;;;;;;;;;;;;;;;;;;5065054;28;19971;-79
2023/04/07 05:29:36;;;;;;;;;;;;;;;;;;5065016;28;19919;-80
2023/04/07 05:32:39;;;;;;;;;;;;;;;;;;5066648;28;19923;-80
2023/04/07 05:35:51;;;;;;;;;;;;;;;;;;5067068;28;19965;-79
2023/04/07 05:38:53;;;;;;;;;;;;;;;;;;5079867;28;20041;-80
2023/04/07 05:41:57;;;;;;;;;;;;;;;;;;5079407;28;19962;-79
2023/04/07 05:45:02;;;;;;;;;;;;;;;;;;5079322;28;20065;-78
2023/04/07 05:48:05;;;;;;;;;;;;;;;;;;5066870;28;19958;-79
2023/04/07 05:51:16;;;;;;;;;;;;;;;;;;5067205;28;20295;-78
2023/04/07 05:54:19;;;;;;;;;;;;;;;;;;5066837;28;19920;-78
2023/04/07 05:57:22;;;;;;;;;;;;;;;;;;5049266;28;20395;-78
2023/04/07 06:00:27;;;;;;;;;;;;;;;;;;5049912;28;20392;-78
2023/04/07 06:03:39;;;;;;;;;;;;;;;;;;5026919;28;20407;-78
2023/04/07 06:06:53;;;;;;;;;;;;;;;;;;5039244;28;19920;-78
2023/04/07 06:09:58;;;;;;;;;;;;;;;;;;5026304;28;20385;-78
2023/04/07 06:13:02;;;;;;;;;;;;;;;;;;5050127;28;20384;-77
2023/04/07 06:16:05;;;;;;;;;;;;;;;;;;5027119;28;20032;-77
2023/04/07 06:19:08;;;;;;;;;;;;;;;;;;5039955;28;20336;-76
2023/04/07 06:22:11;;;;;;;;;;;;;;;;;;5039882;28;19920;-77
2023/04/07 06:25:15;;;;;;;;;;;;;;;;;;5050000;28;20005;-76
2023/04/07 06:28:19;;;;;;;;;;;;;;;;;;5034871;28;19936;-78
2023/04/07 06:31:21;;;;;;;;;;;;;;;;;;5035795;28;19924;-77
2023/04/07 06:34:24;;;;;;;;;;;;;;;;;;5035968;28;20388;-75
2023/04/07 06:37:28;;;;;;;;;;;;;;;;;;5023789;28;20392;-77
2023/04/07 06:40:31;;;;;;;;;;;;;;;;;;5035880;28;19920;-78
2023/04/07 06:43:34;;;;;;;;;;;;;;;;;;5035086;28;19960;-77
2023/04/07 06:46:40;;;;;;;;;;;;;;;;;;5023383;28;20003;-77
2023/04/07 06:49:44;;;;;;;;;;;;;;;;;;5035302;28;19919;-76
2023/04/07 06:52:47;;;;;;;;;;;;;;;;;;5035338;28;20397;-77
2023/04/07 06:55:50;;;;;;;;;;;;;;;;;;5035888;28;19919;-78
2023/04/07 06:58:53;;;;;;;;;;;;;;;;;;5055500;28;20509;-77
2023/04/07 07:01:56;;;;;;;;;;;;;;;;;;5041824;28;19940;-78
2023/04/07 07:04:59;;;;;;;;;;;;;;;;;;5054394;28;19919;-79
2023/04/07 07:08:02;;;;;;;;;;;;;;;;;;5054444;28;19959;-77
2023/04/07 07:11:05;;;;;;;;;;;;;;;;;;5041908;28;19924;-77
2023/04/07 07:14:08;;;;;;;;;;;;;;;;;;5054012;28;20443;-77
2023/04/07 07:17:11;;;;;;;;;;;;;;;;;;5054544;28;19920;-75
2023/04/07 07:20:15;;;;;;;;;;;;;;;;;;5054892;28;19919;-77
2023/04/07 07:23:18;;;;;;;;;;;;;;;;;;5054633;28;19924;-78
2023/04/07 07:26:21;;;;;;;;;;;;;;;;;;5042519;28;19919;-78
2023/04/07 07:29:45;;;;;;;;;;;;;;;;;;5065482;28;19935;-77
2023/04/07 07:32:49;;;;;;;;;;;;;;;;;;5054310;28;20287;-77
2023/04/07 07:35:51;;;;;;;;;;;;;;;;;;5054618;28;19966;-79
2023/04/07 07:38:54;;;;;;;;;;;;;;;;;;5054172;28;20300;-78
2023/04/07 07:41:57;;;;;;;;;;;;;;;;;;5053711;28;19923;-77
2023/04/07 07:45:00;;;;;;;;;;;;;;;;;;5054326;28;20395;-78
2023/04/07 07:48:03;;;;;;;;;;;;;;;;;;5054688;28;20423;-77
2023/04/07 07:51:06;;;;;;;;;;;;;;;;;;5054190;28;19924;-77
2023/04/07 07:54:15;;;;;;;;;;;;;;;;;;5054185;28;19971;-80
2023/04/07 07:57:20;;;;;;;;;;;;;;;;;;5064354;28;19963;-80
2023/04/07 08:00:24;;;;;;;;;;;;;;;;;;5053673;28;19919;-81
2023/04/07 08:03:28;;;;;;;;;;;;;;;;;;5041981;28;19967;-80
2023/04/07 08:06:33;;;;;;;;;;;;;;;;;;5053970;28;19935;-81
2023/04/07 08:09:41;;;;;;;;;;;;;;;;;;5054021;28;19924;-79
2023/04/07 08:12:48;;;;;;;;;;;;;;;;;;5053858;28;19970;-80
2023/04/07 08:15:52;;;;;;;;;;;;;;;;;;5053084;28;19967;-80
2023/04/07 08:18:56;;;;;;;;;;;;;;;;;;5040250;28;20398;-80
2023/04/07 08:21:59;;;;;;;;;;;;;;;;;;5053857;28;19924;-78
2023/04/07 08:25:02;;;;;;;;;;;;;;;;;;5053618;28;19920;-79
2023/04/07 08:28:06;;;;;;;;;;;;;;;;;;5053675;28;19920;-78
2023/04/07 08:31:13;;;;;;;;;;;;;;;;;;5053757;28;19924;-80
2023/04/07 08:34:19;;;;;;;;;;;;;;;;;;5053055;28;19919;-78
2023/04/07 08:37:23;;;;;;;;;;;;;;;;;;5053452;28;19939;-78
2023/04/07 08:40:26;;;;;;;;;;;;;;;;;;5041175;28;20285;-82
2023/04/07 08:43:33;;;;;;;;;;;;;;;;;;5041526;28;19924;-72
2023/04/07 08:46:39;;;;;;;;;;;;;;;;;;5041111;28;19920;-80
2023/04/07 08:49:48;;;;;;;;;;;;;;;;;;5053148;28;19920;-81
2023/04/07 08:52:51;;;;;;;;;;;;;;;;;;5053099;28;19924;-81
2023/04/07 08:55:57;;;;;;;;;;;;;;;;;;5053579;28;19995;-81
2023/04/07 08:59:01;;;;;;;;;;;;;;;;;;5053184;28;20344;-81
2023/04/07 09:02:05;;;;;;;;;;;;;;;;;;5053048;28;19920;-81
2023/04/07 09:05:08;;;;;;;;;;;;;;;;;;5053429;28;19924;-80
2023/04/07 09:08:11;;;;;;;;;;;;;;;;;;5053105;28;20423;-80
2023/04/07 09:11:15;;;;;;;;;;;;;;;;;;5053232;28;20298;-80
2023/04/07 09:14:19;;;;;;;;;;;;;;;;;;5053176;28;20392;-80
2023/04/07 09:17:22;;;;;;;;;;;;;;;;;;5053192;28;19981;-81
2023/04/07 09:20:26;;;;;;;;;;;;;;;;;;5053267;28;19923;-79
2023/04/07 09:23:29;;;;;;;;;;;;;;;;;;5051766;28;19927;-79
2023/04/07 09:26:33;;;;;;;;;;;;;;;;;;5051675;28;19922;-81
2023/04/07 09:29:36;;;;;;;;;;;;;;;;;;5052808;28;20005;-82
2023/04/07 09:32:40;;;;;;;;;;;;;;;;;;5052768;28;19924;-81
2023/04/07 09:35:43;;;;;;;;;;;;;;;;;;5053057;28;19948;-79
2023/04/07 09:38:45;;;;;;;;;;;;;;;;;;5040668;28;19920;-81
2023/04/07 09:41:48;;;;;;;;;;;;;;;;;;5052994;28;19923;-80
2023/04/07 09:44:52;;;;;;;;;;;;;;;;;;5052805;28;20351;-80
2023/04/07 09:47:55;;;;;;;;;;;;;;;;;;5052639;28;19971;-80
2023/04/07 09:51:01;;;;;;;;;;;;;;;;;;5063530;28;20314;-79
2023/04/07 09:54:14;;;;;;;;;;;;;;;;;;5052567;28;19970;-77
2023/04/07 09:57:17;;;;;;;;;;;;;;;;;;5040184;28;19967;-71
2023/04/07 10:00:20;;;;;;;;;;;;;;;;;;5052209;28;19920;-71
2023/04/07 10:03:24;;;;;;;;;;;;;;;;;;5043836;28;19983;-70
2023/04/07 10:06:29;;;;;;;;;;;;;;;;;;5056222;28;20373;-70
2023/04/07 10:09:32;;;;;;;;;;;;;;;;;;5056106;28;19959;-69
2023/04/07 10:12:35;;;;;;;;;;;;;;;;;;5056082;28;19924;-76
2023/04/07 10:15:38;;;;;;;;;;;;;;;;;;5056243;28;19919;-76
2023/04/07 10:18:41;;;;;;;;;;;;;;;;;;5056137;28;19958;-76
2023/04/07 10:21:43;;;;;;;;;;;;;;;;;;5043330;28;19999;-74
2023/04/07 10:24:47;;;;;;;;;;;;;;;;;;5055692;28;20283;-74
2023/04/07 10:27:50;;;;;;;;;;;;;;;;;;5056063;28;19955;-74
2023/04/07 10:30:53;;;;;;;;;;;;;;;;;;5055693;28;20356;-73
2023/04/07 10:33:56;;;;;;;;;;;;;;;;;;5055619;28;20050;-73
2023/04/07 10:36:59;;;;;;;;;;;;;;;;;;5055637;28;19919;-73
2023/04/07 10:40:02;;;;;;;;;;;;;;;;;;5055569;28;19924;-74
2023/04/07 10:43:08;;;;;;;;;;;;;;;;;;5055410;28;19943;-74
2023/04/07 10:46:11;;;;;;;;;;;;;;;;;;5055452;28;20004;-69
2023/04/07 10:49:15;;;;;;;;;;;;;;;;;;5055108;28;19924;-69
2023/04/07 10:52:18;;;;;;;;;;;;;;;;;;5054996;28;19924;-75
2023/04/07 10:55:20;;;;;;;;;;;;;;;;;;5055423;28;19967;-74
2023/04/07 10:58:23;;;;;;;;;;;;;;;;;;5055029;28;19982;-76
2023/04/07 11:01:27;;;;;;;;;;;;;;;;;;5055395;28;19919;-73
2023/04/07 11:04:30;;;;;;;;;;;;;;;;;;5056436;28;19947;-73
2023/04/07 11:07:33;;;;;;;;;;;;;;;;;;5055013;28;19940;-74
2023/04/07 11:10:36;;;;;;;;;;;;;;;;;;5054875;28;20280;-74
2023/04/07 11:13:41;;;;;;;;;;;;;;;;;;5054124;28;19924;-74
2023/04/07 11:16:44;;;;;;;;;;;;;;;;;;5055339;28;20395;-74
2023/04/07 11:19:47;;;;;;;;;;;;;;;;;;5056080;28;20341;-75
2023/04/07 11:22:51;;;;;;;;;;;;;;;;;;5054569;28;20391;-75
2023/04/07 11:25:54;;;;;;;;;;;;;;;;;;5055178;28;20284;-74
2023/04/07 11:28:58;;;;;;;;;;;;;;;;;;5042055;28;19958;-75
2023/04/07 11:32:01;;;;;;;;;;;;;;;;;;5052971;28;19963;-75
2023/04/07 11:35:05;;;;;;;;;;;;;;;;;;5041676;28;20382;-75
2023/04/07 11:38:08;;;;;;;;;;;;;;;;;;5053248;28;20026;-74
2023/04/07 11:41:12;;;;;;;;;;;;;;;;;;5053446;28;19975;-73
2023/04/07 11:44:15;;;;;;;;;;;;;;;;;;5053220;28;20382;-74
2023/04/07 11:47:18;;;;;;;;;;;;;;;;;;5054372;28;19920;-75
2023/04/07 11:50:22;;;;;;;;;;;;;;;;;;5054332;28;20331;-73
2023/04/07 11:53:25;;;;;;;;;;;;;;;;;;5054299;28;19923;-73
2023/04/07 11:56:29;;;;;;;;;;;;;;;;;;5054139;28;19923;-73
2023/04/07 11:59:32;;;;;;;;;;;;;;;;;;5054164;28;19924;-72
2023/04/07 12:02:35;;;;;;;;;;;;;;;;;;5054128;28;20000;-72
2023/04/07 12:05:38;;;;;;;;;;;;;;;;;;5054052;28;19924;-73
2023/04/07 12:08:41;;;;;;;;;;;;;;;;;;5054017;28;20300;-73
2023/04/07 12:11:44;;;;;;;;;;;;;;;;;;5053963;28;19923;-73
2023/04/07 12:14:46;;;;;;;;;;;;;;;;;;5054177;28;19931;-73
2023/04/07 12:17:50;;;;;;;;;;;;;;;;;;5053880;28;19919;-73
2023/04/07 12:20:53;;;;;;;;;;;;;;;;;;5053998;28;19939;-73
2023/04/07 12:23:55;;;;;;;;;;;;;;;;;;5053618;28;19920;-73
2023/04/07 12:26:58;;;;;;;;;;;;;;;;;;5053366;28;20348;-73
2023/04/07 12:30:01;;;;;;;;;;;;;;;;;;5053623;28;19919;-72
2023/04/07 12:33:05;;;;;;;;;;;;;;;;;;5053461;28;19924;-72
2023/04/07 12:36:09;;;;;;;;;;;;;;;;;;5041311;28;19920;-73
2023/04/07 12:39:12;;;;;;;;;;;;;;;;;;5053474;28;20435;-72
2023/04/07 12:42:15;;;;;;;;;;;;;;;;;;5053492;28;20419;-72
2023/04/07 12:45:18;;;;;;;;;;;;;;;;;;5053320;28;19971;-72
2023/04/07 12:48:21;;;;;;;;;;;;;;;;;;5053578;28;19919;-73
2023/04/07 12:51:24;;;;;;;;;;;;;;;;;;5053208;28;19923;-73
2023/04/07 12:54:27;;;;;;;;;;;;;;;;;;5052499;28;20050;-72
2023/04/07 12:57:32;;;;;;;;;;;;;;;;;;5052977;28;19928;-73
2023/04/07 13:00:35;;;;;;;;;;;;;;;;;;5053154;28;19919;-72
2023/04/07 13:03:38;;;;;;;;;;;;;;;;;;5063952;28;19923;-72
2023/04/07 13:06:41;;;;;;;;;;;;;;;;;;5053123;28;19920;-72
2023/04/07 13:09:45;;;;;;;;;;;;;;;;;;5053389;28;19920;-72
2023/04/07 13:12:49;;;;;;;;;;;;;;;;;;5053022;28;19924;-71
2023/04/07 13:15:52;;;;;;;;;;;;;;;;;;5053053;28;20323;-71
2023/04/07 13:18:56;;;;;;;;;;;;;;;;;;5053042;28;19975;-72
2023/04/07 13:21:59;;;;;;;;;;;;;;;;;;5052975;28;19958;-72
2023/04/07 13:25:02;;;;;;;;;;;;;;;;;;5052983;28;19920;-73
2023/04/07 13:28:06;;;;;;;;;;;;;;;;;;5052783;28;19981;-73
2023/04/07 13:31:11;;;;;;;;;;;;;;;;;;5052747;28;19935;-72
2023/04/07 13:34:15;;;;;;;;;;;;;;;;;;5052955;28;19958;-70
2023/04/07 13:37:18;;;;;;;;;;;;;;;;;;5055143;28;19919;-73
2023/04/07 13:40:23;;;;;;;;;;;;;;;;;;5056680;28;19919;-73
2023/04/07 13:43:26;;;;;;;;;;;;;;;;;;5056753;28;19920;-72
2023/04/07 13:46:30;;;;;;;;;;;;;;;;;;5056651;28;19920;-74
2023/04/07 13:49:33;;;;;;;;;;;;;;;;;;5056582;28;19919;-73
2023/04/07 13:52:37;;;;;;;;;;;;;;;;;;5056451;28;19923;-73
2023/04/07 13:55:40;;;;;;;;;;;;;;;;;;5056490;28;20000;-73
2023/04/07 13:58:43;;;;;;;;;;;;;;;;;;5056143;28;19978;-73
2023/04/07 14:01:46;;;;;;;;;;;;;;;;;;5056756;28;19975;-74
2023/04/07 14:04:48;;;;;;;;;;;;;;;;;;5056596;28;19975;-75
2023/04/07 14:07:51;;;;;;;;;;;;;;;;;;5056258;28;20440;-74
2023/04/07 14:10:55;;;;;;;;;;;;;;;;;;5056220;28;19920;-74
2023/04/07 14:13:58;;;;;;;;;;;;;;;;;;5044025;28;20333;-75
2023/04/07 14:17:02;;;;;;;;;;;;;;;;;;5056070;28;19920;-73
2023/04/07 14:20:06;;;;;;;;;;;;;;;;;;5055851;28;19920;-76
2023/04/07 14:23:10;;;;;;;;;;;;;;;;;;5056136;28;20376;-73
2023/04/07 14:26:13;;;;;;;;;;;;;;;;;;5055873;28;19923;-74
2023/04/07 14:29:16;;;;;;;;;;;;;;;;;;5055827;28;19920;-72
2023/04/07 14:32:19;;;;;;;;;;;;;;;;;;5055790;28;19924;-73
2023/04/07 14:35:23;;;;;;;;;;;;;;;;;;5055657;28;20419;-72
2023/04/07 14:38:26;;;;;;;;;;;;;;;;;;5055645;28;19920;-72
2023/04/07 14:41:30;;;;;;;;;;;;;;;;;;5055600;28;19967;-72
2023/04/07 14:44:36;;;;;;;;;;;;;;;;;;5054047;28;19967;-73
2023/04/07 14:47:39;;;;;;;;;;;;;;;;;;5053875;28;19919;-73
2023/04/07 14:50:42;;;;;;;;;;;;;;;;;;5055086;28;20434;-73
2023/04/07 14:53:45;;;;;;;;;;;;;;;;;;5055378;28;20387;-73
2023/04/07 14:56:49;;;;;;;;;;;;;;;;;;5055620;28;19970;-73
2023/04/07 14:59:52;;;;;;;;;;;;;;;;;;5055354;28;20284;-72
2023/04/07 15:02:55;;;;;;;;;;;;;;;;;;5055018;28;19920;-74
2023/04/07 15:05:59;;;;;;;;;;;;;;;;;;5054501;28;20399;-74
2023/04/07 15:09:02;;;;;;;;;;;;;;;;;;5054377;28;20407;-74
2023/04/07 15:12:05;;;;;;;;;;;;;;;;;;5042835;28;19924;-74
2023/04/07 15:15:08;;;;;;;;;;;;;;;;;;5055194;28;20304;-74
2023/04/07 15:18:11;;;;;;;;;;;;;;;;;;5055231;28;20295;-74
2023/04/07 15:21:14;;;;;;;;;;;;;;;;;;5042706;28;19924;-74
2023/04/07 15:24:18;;;;;;;;;;;;;;;;;;5055320;28;19919;-73
2023/04/07 15:27:21;;;;;;;;;;;;;;;;;;5054809;28;19920;-75
2023/04/07 15:30:24;;;;;;;;;;;;;;;;;;5042521;28;19939;-75
2023/04/07 15:33:27;;;;;;;;;;;;;;;;;;5054944;28;19928;-73
2023/04/07 15:36:30;;;;;;;;;;;;;;;;;;5054852;28;20422;-75
2023/04/07 15:39:33;;;;;;;;;;;;;;;;;;5055076;28;19919;-74
2023/04/07 15:42:38;;;;;;;;;;;;;;;;;;5054996;28;20015;-74
2023/04/07 15:45:41;;;;;;;;;;;;;;;;;;5054636;28;20035;-74
2023/04/07 15:48:46;;;;;;;;;;;;;;;;;;5054707;28;19920;-75
2023/04/07 15:51:50;;;;;;;;;;;;;;;;;;5054517;28;19987;-75
2023/04/07 15:54:52;;;;;;;;;;;;;;;;;;5054246;28;19920;-75
2023/04/07 15:57:55;;;;;;;;;;;;;;;;;;5054357;28;20288;-74
2023/04/07 16:00:58;;;;;;;;;;;;;;;;;;5054237;28;20002;-74
2023/04/07 16:04:02;;;;;;;;;;;;;;;;;;5054349;28;19920;-74
2023/04/07 16:07:05;;;;;;;;;;;;;;;;;;5042072;28;19974;-75
2023/04/07 16:10:08;;;;;;;;;;;;;;;;;;5054111;28;19928;-72
2023/04/07 16:13:11;;;;;;;;;;;;;;;;;;5053884;28;19940;-77
2023/04/07 16:16:14;;;;;;;;;;;;;;;;;;5053980;28;19920;-76
2023/04/07 16:19:18;;;;;;;;;;;;;;;;;;5054112;28;19919;-77
2023/04/07 16:22:20;;;;;;;;;;;;;;;;;;5053739;28;20300;-74
2023/04/07 16:25:27;;;;;;;;;;;;;;;;;;5053825;28;19959;-75
2023/04/07 16:28:30;;;;;;;;;;;;;;;;;;5053899;28;20000;-76
2023/04/07 16:31:34;;;;;;;;;;;;;;;;;;5053921;28;19962;-72
2023/04/07 16:34:37;;;;;;;;;;;;;;;;;;5054006;28;19935;-77
2023/04/07 16:37:47;;;;;;;;;;;;;;;;;;5053532;28;19927;-76
2023/04/07 16:40:50;;;;;;;;;;;;;;;;;;5053566;28;19966;-77
2023/04/07 16:43:53;;;;;;;;;;;;;;;;;;5053727;28;19920;-77
2023/04/07 16:46:56;;;;;;;;;;;;;;;;;;5053488;28;19919;-78
2023/04/07 16:49:59;;;;;;;;;;;;;;;;;;5053488;28;19966;-78
2023/04/07 16:53:02;;;;;;;;;;;;;;;;;;5053333;28;19923;-79
2023/04/07 16:56:04;;;;;;;;;;;;;;;;;;5053533;28;19919;-78
2023/04/07 16:59:07;;;;;;;;;;;;;;;;;;5053276;28;19928;-79
2023/04/07 17:02:11;;;;;;;;;;;;;;;;;;5040972;28;20304;-80
2023/04/07 17:05:17;;;;;;;;;;;;;;;;;;5053235;28;19971;-80
2023/04/07 17:08:20;;;;;;;;;;;;;;;;;;5063964;28;20375;-80
2023/04/07 17:11:23;;;;;;;;;;;;;;;;;;5052496;28;20344;-80
2023/04/07 17:14:26;;;;;;;;;;;;;;;;;;5053154;28;19959;-83
2023/04/07 17:17:29;;;;;;;;;;;;;;;;;;5053492;28;19967;-83
2023/04/07 17:20:32;;;;;;;;;;;;;;;;;;5053387;28;19963;-83
2023/04/07 17:23:36;;;;;;;;;;;;;;;;;;5053242;28;20399;-83
2023/04/07 17:26:39;;;;;;;;;;;;;;;;;;5052981;28;19958;-83
2023/04/07 17:29:42;;;;;;;;;;;;;;;;;;5040709;28;19940;-83
2023/04/07 17:32:46;;;;;;;;;;;;;;;;;;5052957;28;19998;-82
2023/04/07 17:35:53;;;;;;;;;;;;;;;;;;5052960;28;20352;-82
2023/04/07 17:38:56;;;;;;;;;;;;;;;;;;5052986;28;20012;-82
2023/04/07 17:41:59;;;;;;;;;;;;;;;;;;5052885;28;20455;-83
2023/04/07 17:45:01;;;;;;;;;;;;;;;;;;5051546;28;20324;-82
2023/04/07 17:48:08;;;;;;;;;;;;;;;;;;5053172;28;19920;-81
2023/04/07 17:51:12;;;;;;;;;;;;;;;;;;5052670;28;19920;-82
2023/04/07 17:54:16;;;;;;;;;;;;;;;;;;5052496;28;19967;-80
2023/04/07 17:57:44;;;;;;;;;;;;;;;;;;5050477;28;20399;-80
2023/04/07 18:00:49;;;;;;;;;;;;;;;;;;5053104;28;19958;-80
2023/04/07 18:03:52;;;;;;;;;;;;;;;;;;5052586;28;19966;-81
2023/04/07 18:06:57;;;;;;;;;;;;;;;;;;5050834;28;19920;-81
2023/04/07 18:10:02;;;;;;;;;;;;;;;;;;5051680;28;19920;-71
2023/04/07 18:13:05;;;;;;;;;;;;;;;;;;5052350;28;20031;-69
2023/04/07 18:16:12;;;;;;;;;;;;;;;;;;5040246;28;19959;-70
2023/04/07 18:19:17;;;;;;;;;;;;;;;;;;5063450;28;19967;-77
2023/04/07 18:22:20;;;;;;;;;;;;;;;;;;5053353;28;19935;-79
2023/04/07 18:25:25;;;;;;;;;;;;;;;;;;5056477;28;19919;-78
2023/04/07 18:28:31;;;;;;;;;;;;;;;;;;5043974;28;19935;-77
2023/04/07 18:31:34;;;;;;;;;;;;;;;;;;5055967;28;20449;-77
2023/04/07 18:34:37;;;;;;;;;;;;;;;;;;5055997;28;19982;-79
2023/04/07 18:37:41;;;;;;;;;;;;;;;;;;5050410;28;20387;-76
2023/04/07 18:40:44;;;;;;;;;;;;;;;;;;5043777;28;19967;-77
2023/04/07 18:43:47;;;;;;;;;;;;;;;;;;5055991;28;19919;-77
2023/04/07 18:46:50;;;;;;;;;;;;;;;;;;5055793;28;20292;-77
2023/04/07 18:49:57;;;;;;;;;;;;;;;;;;5055772;28;19920;-77
2023/04/07 18:53:01;;;;;;;;;;;;;;;;;;5054732;28;19924;-77
2023/04/07 18:56:05;;;;;;;;;;;;;;;;;;5055908;28;20004;-77
2023/04/07 18:59:08;;;;;;;;;;;;;;;;;;5055546;28;19931;-77
2023/04/07 19:02:12;;;;;;;;;;;;;;;;;;5055731;28;19920;-77
2023/04/07 19:05:16;;;;;;;;;;;;;;;;;;5055667;28;20312;-77
2023/04/07 19:08:23;;;;;;;;;;;;;;;;;;5054833;28;19920;-75
2023/04/07 19:11:44;;;;;;;;;;;;;;;;;;5055366;28;19970;-78
2023/04/07 19:18:30;;;;;;;;;;;;;;;;;;5043845;28;20043;-75
2023/04/07 19:21:34;;;;;;;;;;;;;;;;;;5055360;28;19966;-76
2023/04/07 19:24:38;;;;;;;;;;;;;;;;;;5054653;28;19966;-79
2023/04/07 19:27:41;;;;;;;;;;;;;;;;;;5054452;28;19920;-77
2023/04/07 19:30:44;;;;;;;;;;;;;;;;;;5054919;28;19919;-76
2023/04/07 19:33:47;;;;;;;;;;;;;;;;;;5073538;28;20007;-76
2023/04/07 19:36:50;;;;;;;;;;;;;;;;;;5074914;28;19958;-77
2023/04/07 19:39:54;;;;;;;;;;;;;;;;;;5074990;28;19919;-78
2023/04/07 19:42:58;;;;;;;;;;;;;;;;;;5074849;28;19966;-78
2023/04/07 19:46:03;;;;;;;;;;;;;;;;;;5075055;28;20334;-78
2023/04/07 19:49:09;;;;;;;;;;;;;;;;;;5075262;28;19966;-78
2023/04/07 19:52:11;;;;;;;;;;;;;;;;;;5074681;28;19962;-78
2023/04/07 19:55:15;;;;;;;;;;;;;;;;;;5074631;28;19919;-78
2023/04/07 19:58:21;;;;;;;;;;;;;;;;;;5054264;28;20404;-77
2023/04/07 20:01:24;;;;;;;;;;;;;;;;;;5054296;28;19936;-78
2023/04/07 20:04:29;;;;;;;;;;;;;;;;;;5058537;28;19923;-81
2023/04/07 20:07:32;;;;;;;;;;;;;;;;;;5072364;28;20342;-78
2023/04/07 20:10:37;;;;;;;;;;;;;;;;;;5072448;28;19962;-78
2023/04/07 20:13:40;;;;;;;;;;;;;;;;;;5072920;28;20300;-79
2023/04/07 20:16:43;;;;;;;;;;;;;;;;;;5073475;28;19958;-79
2023/04/07 20:19:46;;;;;;;;;;;;;;;;;;5070768;28;19920;-79
2023/04/07 20:22:50;;;;;;;;;;;;;;;;;;5067281;28;20367;-79
2023/04/07 20:25:53;;;;;;;;;;;;;;;;;;5072909;28;20392;-79
2023/04/07 20:28:56;;;;;;;;;;;;;;;;;;5070199;28;19919;-79
2023/04/07 20:31:59;;;;;;;;;;;;;;;;;;5067717;28;19962;-78
2023/04/07 20:35:05;;;;;;;;;;;;;;;;;;5068898;28;19928;-78
2023/04/07 20:38:08;;;;;;;;;;;;;;;;;;5069011;28;20394;-79
2023/04/07 20:41:11;;;;;;;;;;;;;;;;;;5069113;28;19919;-78
2023/04/07 20:44:14;;;;;;;;;;;;;;;;;;5069738;28;19919;-78
2023/04/07 20:47:18;;;;;;;;;;;;;;;;;;5063490;28;20027;-77
2023/04/07 20:50:21;;;;;;;;;;;;;;;;;;5070489;28;19958;-78
2023/04/07 20:53:24;;;;;;;;;;;;;;;;;;5065195;28;19970;-77
2023/04/07 20:56:29;;;;;;;;;;;;;;;;;;5072477;28;19919;-78
2023/04/07 20:59:32;;;;;;;;;;;;;;;;;;5073265;28;19923;-77
2023/04/07 21:02:35;;;;;;;;;;;;;;;;;;5060596;28;19923;-77